Aviation Digital Data Service (ADDS)

Output produced by METARs form (1208 UTC 24 March 2017)
found at http://www.aviationweather.gov/adds/metars/
 
FMMI 241130Z 06007KT 030V100 9999 SCT020CB 26/20 Q1018 NOSIG
TAF FMMI 241100Z 2412/2518 10010KT 9999 SCT017 SCT020 
     PROB30 
     TEMPO 2414/2420 4500 TSRA 
     BECMG 2418/2421 VRB03KT 
     PROB30 2501/2505 3000 BR
       
TAF FMNA 241100Z 2412/2512 14012KT 9999 SCT020CB SCT040 
     PROB30 
     TEMPO 2420/2504 4000 TSRA
       
FMNM 241200Z 32008KT 9999 FEW020CB 31/25 Q1010 NOSIG
TAF FMNM 241100Z 2412/2512 30010KT 9999 SCT020CB SCT040 
     PROB40 
     TEMPO 2416/2503 4000 TSRA 
     BECMG 2417/2419 16005KT
       
TAF FMNN 241100Z 2412/2512 26010KT 9999 SCT020CB BKN040 
     PROB30 
     TEMPO 2412/2502 4000 TSRA 
     BECMG 2416/2419 20006KT
       
TAF FMMS 241100Z 2412/2512 16010KT 9999 SCT017 SCT033 
     PROB40 
     TEMPO 2412/2422 4000 TSRA
       
FMMT 241200Z 20008KT 9999 SCT017TCU 31/23 Q1011 NOSIG
TAF FMMT 241100Z 2412/2512 14010KT 9999 SCT017 
     BECMG 2415/2418 00000KT 
     BECMG 2503/2506 24010KT
       
FMSD 241200Z 06012KT 9999 FEW020 30/23 Q1011
TAF FMSD 241100Z 2412/2512 06012KT 9999 FEW020 SCT033
       
TAF FMST 241100Z 2412/2512 22010KT 9999 SCT020 
     BECMG 2416/2418 14006KT